Time;durP1;ratioP1;P1;durP2;ratioP2;P2;SDS_P1;SDS_P2;PMS_P1;PMS_P2;Temp;Humidity;BMP_temperature;BMP_pressure;BME280_temperature;BME280_humidity;BME280_pressure;Samples;Min_cycle;Max_cycle;Signal;HPM_P1;HPM_P2
2021/09/27 00:01:15;;;;;;;;;;;;;;;;;;5092032;28;19924;-66
2021/09/27 00:03:42;;;;;;;;;;;;;;;;;;5091324;28;19924;-66
2021/09/27 00:06:09;;;;;;;;;;;;;;;;;;5093363;28;19931;-63
2021/09/27 00:08:36;;;;;;;;;;;;;;;;;;5091947;28;19931;-63
2021/09/27 00:11:03;;;;;;;;;;;;;;;;;;5089770;28;19924;-65
2021/09/27 00:13:30;;;;;;;;;;;;;;;;;;5093055;28;20285;-66
2021/09/27 00:15:57;;;;;;;;;;;;;;;;;;5090038;28;19931;-65
2021/09/27 00:18:24;;;;;;;;;;;;;;;;;;5092045;28;20307;-64
2021/09/27 00:20:51;;;;;;;;;;;;;;;;;;5090721;28;19950;-66
2021/09/27 00:23:18;;;;;;;;;;;;;;;;;;5091243;28;19924;-64
2021/09/27 00:25:45;;;;;;;;;;;;;;;;;;5085441;28;19931;-64
2021/09/27 00:28:12;;;;;;;;;;;;;;;;;;5089587;28;20043;-65
2021/09/27 00:30:39;;;;;;;;;;;;;;;;;;5090388;28;19967;-64
2021/09/27 00:33:06;;;;;;;;;;;;;;;;;;5092138;28;19924;-64
2021/09/27 00:35:33;;;;;;;;;;;;;;;;;;5092130;28;20079;-66
2021/09/27 00:38:00;;;;;;;;;;;;;;;;;;5088600;28;19932;-66
2021/09/27 00:40:27;;;;;;;;;;;;;;;;;;5089058;28;19924;-66
2021/09/27 00:42:54;;;;;;;;;;;;;;;;;;5084366;28;19928;-65
2021/09/27 00:45:21;;;;;;;;;;;;;;;;;;5092349;28;19928;-67
2021/09/27 00:47:48;;;;;;;;;;;;;;;;;;5091183;28;19925;-66
2021/09/27 00:50:15;;;;;;;;;;;;;;;;;;5089479;28;19928;-66
2021/09/27 00:52:42;;;;;;;;;;;;;;;;;;5087569;28;19931;-66
2021/09/27 00:55:09;;;;;;;;;;;;;;;;;;5091818;28;20291;-66
2021/09/27 00:57:36;;;;;;;;;;;;;;;;;;5087952;28;19924;-66
2021/09/27 01:00:04;;;;;;;;;;;;;;;;;;5082187;28;19932;-67
2021/09/27 01:02:31;;;;;;;;;;;;;;;;;;5089519;28;19924;-66
2021/09/27 01:04:58;;;;;;;;;;;;;;;;;;5089472;28;19939;-66
2021/09/27 01:07:25;;;;;;;;;;;;;;;;;;5088231;28;19935;-66
2021/09/27 01:09:52;;;;;;;;;;;;;;;;;;5089366;28;19928;-66
2021/09/27 01:12:19;;;;;;;;;;;;;;;;;;5091715;28;20322;-67
2021/09/27 01:14:46;;;;;;;;;;;;;;;;;;5091574;28;19932;-66
2021/09/27 01:17:13;;;;;;;;;;;;;;;;;;5089501;28;19924;-66
2021/09/27 01:19:40;;;;;;;;;;;;;;;;;;5090048;28;19930;-66
2021/09/27 01:22:07;;;;;;;;;;;;;;;;;;5092166;28;19924;-66
2021/09/27 01:24:33;;;;;;;;;;;;;;;;;;5089459;28;19947;-64
2021/09/27 01:27:00;;;;;;;;;;;;;;;;;;5089525;28;19928;-64
2021/09/27 01:29:27;;;;;;;;;;;;;;;;;;5084189;28;20011;-65
2021/09/27 01:31:54;;;;;;;;;;;;;;;;;;5088593;28;19931;-66
2021/09/27 01:34:21;;;;;;;;;;;;;;;;;;5091126;28;20328;-65
2021/09/27 01:36:48;;;;;;;;;;;;;;;;;;5095061;28;19936;-66
2021/09/27 01:39:15;;;;;;;;;;;;;;;;;;5087961;28;19924;-64
2021/09/27 01:41:42;;;;;;;;;;;;;;;;;;5090931;28;19930;-66
2021/09/27 01:44:09;;;;;;;;;;;;;;;;;;5090879;28;20030;-65
2021/09/27 01:46:36;;;;;;;;;;;;;;;;;;5089019;28;19924;-66
2021/09/27 01:49:03;;;;;;;;;;;;;;;;;;5089952;28;19924;-67
2021/09/27 01:51:30;;;;;;;;;;;;;;;;;;5090992;28;19924;-65
2021/09/27 01:53:57;;;;;;;;;;;;;;;;;;5087539;28;19924;-66
2021/09/27 01:56:24;;;;;;;;;;;;;;;;;;5088838;28;19928;-66
2021/09/27 01:58:51;;;;;;;;;;;;;;;;;;5089479;28;20387;-64
2021/09/27 02:01:18;;;;;;;;;;;;;;;;;;5086103;28;19931;-65
2021/09/27 02:03:45;;;;;;;;;;;;;;;;;;5088445;28;19928;-66
2021/09/27 02:06:12;;;;;;;;;;;;;;;;;;5091352;28;19924;-65
2021/09/27 02:08:39;;;;;;;;;;;;;;;;;;5094426;28;19924;-66
2021/09/27 02:11:06;;;;;;;;;;;;;;;;;;5088206;28;19924;-66
2021/09/27 02:13:33;;;;;;;;;;;;;;;;;;5081030;28;20392;-66
2021/09/27 02:16:00;;;;;;;;;;;;;;;;;;5091610;28;20304;-65
2021/09/27 02:18:27;;;;;;;;;;;;;;;;;;5090201;28;19924;-66
2021/09/27 02:20:54;;;;;;;;;;;;;;;;;;5090468;28;20402;-66
2021/09/27 02:23:21;;;;;;;;;;;;;;;;;;5090628;28;19928;-66
2021/09/27 02:25:49;;;;;;;;;;;;;;;;;;5088927;28;19931;-67
2021/09/27 02:28:17;;;;;;;;;;;;;;;;;;5088998;28;19928;-65
2021/09/27 02:30:44;;;;;;;;;;;;;;;;;;5089082;28;19924;-65
2021/09/27 02:33:11;;;;;;;;;;;;;;;;;;5089310;28;19928;-67
2021/09/27 02:35:38;;;;;;;;;;;;;;;;;;5090300;28;19930;-66
2021/09/27 02:38:05;;;;;;;;;;;;;;;;;;5090845;28;20392;-66
2021/09/27 02:40:32;;;;;;;;;;;;;;;;;;5087640;28;20307;-66
2021/09/27 02:42:58;;;;;;;;;;;;;;;;;;5084256;28;19932;-65
2021/09/27 02:45:26;;;;;;;;;;;;;;;;;;5083801;28;19928;-69
2021/09/27 02:47:53;;;;;;;;;;;;;;;;;;5090081;28;20414;-65
2021/09/27 02:50:19;;;;;;;;;;;;;;;;;;5087768;28;19932;-66
2021/09/27 02:52:46;;;;;;;;;;;;;;;;;;5089202;28;19923;-67
2021/09/27 02:55:13;;;;;;;;;;;;;;;;;;5090198;28;20289;-66
2021/09/27 02:57:40;;;;;;;;;;;;;;;;;;5086402;28;19931;-65
2021/09/27 03:00:07;;;;;;;;;;;;;;;;;;5088426;28;19924;-66
2021/09/27 03:02:34;;;;;;;;;;;;;;;;;;5087317;28;19931;-66
2021/09/27 03:05:01;;;;;;;;;;;;;;;;;;5090208;28;19931;-66
2021/09/27 03:07:28;;;;;;;;;;;;;;;;;;5087349;28;19924;-69
2021/09/27 03:09:55;;;;;;;;;;;;;;;;;;5090513;28;19935;-66
2021/09/27 03:12:22;;;;;;;;;;;;;;;;;;5092111;28;19928;-66
2021/09/27 03:14:49;;;;;;;;;;;;;;;;;;5091482;28;20395;-66
2021/09/27 03:17:16;;;;;;;;;;;;;;;;;;5094157;28;20014;-65
2021/09/27 03:19:44;;;;;;;;;;;;;;;;;;5092862;28;19936;-66
2021/09/27 03:22:11;;;;;;;;;;;;;;;;;;5092588;28;20379;-66
2021/09/27 03:24:37;;;;;;;;;;;;;;;;;;5093646;28;19950;-66
2021/09/27 03:27:04;;;;;;;;;;;;;;;;;;5088489;28;19935;-67
2021/09/27 03:29:31;;;;;;;;;;;;;;;;;;5087630;28;19931;-64
2021/09/27 03:31:58;;;;;;;;;;;;;;;;;;5090715;28;19939;-66
2021/09/27 03:34:25;;;;;;;;;;;;;;;;;;5093516;28;19928;-66
2021/09/27 03:36:52;;;;;;;;;;;;;;;;;;5090738;28;20313;-65
2021/09/27 03:39:19;;;;;;;;;;;;;;;;;;5087302;28;19924;-65
2021/09/27 03:41:46;;;;;;;;;;;;;;;;;;5089995;28;19935;-66
2021/09/27 03:44:13;;;;;;;;;;;;;;;;;;5066359;22;19924;-66
2021/09/27 03:46:40;;;;;;;;;;;;;;;;;;5051722;28;20269;-67
2021/09/27 03:49:07;;;;;;;;;;;;;;;;;;5046869;28;19924;-65
2021/09/27 03:51:34;;;;;;;;;;;;;;;;;;5052473;28;19925;-65
2021/09/27 03:54:01;;;;;;;;;;;;;;;;;;5048974;28;19928;-66
2021/09/27 03:56:28;;;;;;;;;;;;;;;;;;5052104;28;19936;-65
2021/09/27 03:58:56;;;;;;;;;;;;;;;;;;5052629;28;20304;-66
2021/09/27 04:01:23;;;;;;;;;;;;;;;;;;5048733;28;20312;-65
2021/09/27 04:03:51;;;;;;;;;;;;;;;;;;5044928;28;19925;-66
2021/09/27 04:06:18;;;;;;;;;;;;;;;;;;5043989;28;19982;-65
2021/09/27 04:08:45;;;;;;;;;;;;;;;;;;5052513;28;19925;-66
2021/09/27 04:11:12;;;;;;;;;;;;;;;;;;5052066;28;19925;-65
2021/09/27 04:13:39;;;;;;;;;;;;;;;;;;5053007;28;20308;-65
2021/09/27 04:16:06;;;;;;;;;;;;;;;;;;5050255;28;20317;-65
2021/09/27 04:18:33;;;;;;;;;;;;;;;;;;5046423;28;19925;-65
2021/09/27 04:21:00;;;;;;;;;;;;;;;;;;5051985;28;19932;-65
2021/09/27 04:23:27;;;;;;;;;;;;;;;;;;5052167;28;20011;-66
2021/09/27 04:25:54;;;;;;;;;;;;;;;;;;5051099;28;20389;-65
2021/09/27 04:28:21;;;;;;;;;;;;;;;;;;5052253;28;19949;-65
2021/09/27 04:30:48;;;;;;;;;;;;;;;;;;5052171;28;19933;-65
2021/09/27 04:33:15;;;;;;;;;;;;;;;;;;5052128;28;19931;-66
2021/09/27 04:35:42;;;;;;;;;;;;;;;;;;5047092;28;19929;-65
2021/09/27 04:38:09;;;;;;;;;;;;;;;;;;5047297;28;19948;-65
2021/09/27 04:40:36;;;;;;;;;;;;;;;;;;5051090;28;19925;-66
2021/09/27 04:43:03;;;;;;;;;;;;;;;;;;5045068;28;20425;-65
2021/09/27 04:45:30;;;;;;;;;;;;;;;;;;5051986;28;19924;-65
2021/09/27 04:47:57;;;;;;;;;;;;;;;;;;5051972;28;19933;-65
2021/09/27 04:50:24;;;;;;;;;;;;;;;;;;5047587;28;19929;-65
2021/09/27 04:52:51;;;;;;;;;;;;;;;;;;5051732;28;20376;-65
2021/09/27 04:55:18;;;;;;;;;;;;;;;;;;5052088;28;19929;-65
2021/09/27 04:57:45;;;;;;;;;;;;;;;;;;5051597;28;19932;-65
2021/09/27 05:00:12;;;;;;;;;;;;;;;;;;5048425;28;19932;-65
2021/09/27 05:02:39;;;;;;;;;;;;;;;;;;5048820;28;19929;-67
2021/09/27 05:05:06;;;;;;;;;;;;;;;;;;5051489;28;19932;-66
2021/09/27 05:07:33;;;;;;;;;;;;;;;;;;5049601;28;19925;-67
2021/09/27 05:10:00;;;;;;;;;;;;;;;;;;5049426;28;19931;-67
2021/09/27 05:12:27;;;;;;;;;;;;;;;;;;5051483;28;19925;-67
2021/09/27 05:14:54;;;;;;;;;;;;;;;;;;5044232;28;20403;-67
2021/09/27 05:17:21;;;;;;;;;;;;;;;;;;5049048;28;19924;-67
2021/09/27 05:19:48;;;;;;;;;;;;;;;;;;5049851;28;19929;-66
2021/09/27 05:22:15;;;;;;;;;;;;;;;;;;5050806;28;19924;-67
2021/09/27 05:24:42;;;;;;;;;;;;;;;;;;5051691;28;19924;-67
2021/09/27 05:27:10;;;;;;;;;;;;;;;;;;5049017;28;19925;-67
2021/09/27 05:29:37;;;;;;;;;;;;;;;;;;5050247;28;19931;-67
2021/09/27 05:32:04;;;;;;;;;;;;;;;;;;5042815;28;19925;-67
2021/09/27 05:34:31;;;;;;;;;;;;;;;;;;5046067;28;20016;-66
2021/09/27 05:36:58;;;;;;;;;;;;;;;;;;5050487;28;19929;-66
2021/09/27 05:39:24;;;;;;;;;;;;;;;;;;5050807;28;20418;-66
2021/09/27 05:41:51;;;;;;;;;;;;;;;;;;5046948;28;20286;-67
2021/09/27 05:44:18;;;;;;;;;;;;;;;;;;5048446;28;19936;-65
2021/09/27 05:46:45;;;;;;;;;;;;;;;;;;5045714;28;19924;-66
2021/09/27 05:49:12;;;;;;;;;;;;;;;;;;5050563;28;19925;-67
2021/09/27 05:51:39;;;;;;;;;;;;;;;;;;5048927;28;19932;-67
2021/09/27 05:54:06;;;;;;;;;;;;;;;;;;5050047;28;19928;-67
2021/09/27 05:56:33;;;;;;;;;;;;;;;;;;5050130;28;19924;-67
2021/09/27 05:59:02;;;;;;;;;;;;;;;;;;5048922;28;19935;-66
2021/09/27 06:01:28;;;;;;;;;;;;;;;;;;5042232;28;19953;-66
2021/09/27 06:03:55;;;;;;;;;;;;;;;;;;5049430;28;19929;-65
2021/09/27 06:06:24;;;;;;;;;;;;;;;;;;5049731;28;19932;-65
2021/09/27 06:08:51;;;;;;;;;;;;;;;;;;5050621;28;19925;-65
2021/09/27 06:11:18;;;;;;;;;;;;;;;;;;5046365;28;20290;-65
2021/09/27 06:13:45;;;;;;;;;;;;;;;;;;5048999;28;19925;-66
2021/09/27 06:16:12;;;;;;;;;;;;;;;;;;5049863;28;19933;-65
2021/09/27 06:18:39;;;;;;;;;;;;;;;;;;5049008;28;19928;-66
2021/09/27 06:21:06;;;;;;;;;;;;;;;;;;5047704;28;19928;-66
2021/09/27 06:23:33;;;;;;;;;;;;;;;;;;5043347;28;20308;-66
2021/09/27 06:25:59;;;;;;;;;;;;;;;;;;5039538;28;19926;-65
2021/09/27 06:28:26;;;;;;;;;;;;;;;;;;5044782;28;19925;-66
2021/09/27 06:30:53;;;;;;;;;;;;;;;;;;5048422;28;20258;-66
2021/09/27 06:33:20;;;;;;;;;;;;;;;;;;5048376;28;19936;-65
2021/09/27 06:35:48;;;;;;;;;;;;;;;;;;5036875;28;19939;-65
2021/09/27 06:38:15;;;;;;;;;;;;;;;;;;5045417;28;19925;-65
2021/09/27 06:40:41;;;;;;;;;;;;;;;;;;5049011;28;19933;-64
2021/09/27 06:43:08;;;;;;;;;;;;;;;;;;5043659;28;19929;-64
2021/09/27 06:45:35;;;;;;;;;;;;;;;;;;5041887;28;19932;-64
2021/09/27 06:48:02;;;;;;;;;;;;;;;;;;5049506;28;20493;-65
2021/09/27 06:50:29;;;;;;;;;;;;;;;;;;5045031;28;19925;-66
2021/09/27 06:52:56;;;;;;;;;;;;;;;;;;5048478;28;19925;-67
2021/09/27 06:55:23;;;;;;;;;;;;;;;;;;5050405;28;19925;-65
2021/09/27 06:57:50;;;;;;;;;;;;;;;;;;5044212;28;19929;-65
2021/09/27 07:00:17;;;;;;;;;;;;;;;;;;5044179;28;19925;-65
2021/09/27 07:02:44;;;;;;;;;;;;;;;;;;5040997;28;20308;-66
2021/09/27 07:05:11;;;;;;;;;;;;;;;;;;5044431;28;20324;-66
2021/09/27 07:07:38;;;;;;;;;;;;;;;;;;5049882;28;19932;-67
2021/09/27 07:10:05;;;;;;;;;;;;;;;;;;5038420;28;19928;-67
2021/09/27 07:12:32;;;;;;;;;;;;;;;;;;5049040;28;19952;-67
2021/09/27 07:14:59;;;;;;;;;;;;;;;;;;5050309;28;19929;-66
2021/09/27 07:17:26;;;;;;;;;;;;;;;;;;5047057;28;20577;-66
2021/09/27 07:19:53;;;;;;;;;;;;;;;;;;5047678;28;19929;-66
2021/09/27 07:22:20;;;;;;;;;;;;;;;;;;5048892;28;19932;-65
2021/09/27 07:24:47;;;;;;;;;;;;;;;;;;5051889;28;20020;-67
2021/09/27 07:27:14;;;;;;;;;;;;;;;;;;5044589;28;19925;-66
2021/09/27 07:29:40;;;;;;;;;;;;;;;;;;5043614;28;20281;-66
2021/09/27 07:32:07;;;;;;;;;;;;;;;;;;5049298;28;20331;-66
2021/09/27 07:34:34;;;;;;;;;;;;;;;;;;5051279;28;19939;-66
2021/09/27 07:37:03;;;;;;;;;;;;;;;;;;5049032;28;19924;-66
2021/09/27 07:39:30;;;;;;;;;;;;;;;;;;5048152;28;19937;-66
2021/09/27 07:41:57;;;;;;;;;;;;;;;;;;5051997;28;19939;-65
2021/09/27 07:44:24;;;;;;;;;;;;;;;;;;5044684;28;19931;-66
2021/09/27 07:46:51;;;;;;;;;;;;;;;;;;5051478;28;20381;-66
2021/09/27 07:49:18;;;;;;;;;;;;;;;;;;5045657;28;19925;-66
2021/09/27 07:51:45;;;;;;;;;;;;;;;;;;5042119;28;19925;-66
2021/09/27 07:54:11;;;;;;;;;;;;;;;;;;5048632;28;19939;-66
2021/09/27 07:56:38;;;;;;;;;;;;;;;;;;5050812;28;20480;-66
2021/09/27 07:59:06;;;;;;;;;;;;;;;;;;5046991;28;19972;-64
2021/09/27 08:01:33;;;;;;;;;;;;;;;;;;5047715;28;20414;-65
2021/09/27 08:04:00;;;;;;;;;;;;;;;;;;5045612;28;19940;-67
2021/09/27 08:06:27;;;;;;;;;;;;;;;;;;5048711;28;19940;-67
2021/09/27 08:08:54;;;;;;;;;;;;;;;;;;5051077;28;20240;-67
2021/09/27 08:11:21;;;;;;;;;;;;;;;;;;5042720;28;19925;-66
2021/09/27 08:13:48;;;;;;;;;;;;;;;;;;5047749;28;19932;-65
2021/09/27 08:16:15;;;;;;;;;;;;;;;;;;5049919;28;19931;-65
2021/09/27 08:18:42;;;;;;;;;;;;;;;;;;5051455;28;19925;-65
2021/09/27 08:21:09;;;;;;;;;;;;;;;;;;5047393;28;19933;-66
2021/09/27 08:23:36;;;;;;;;;;;;;;;;;;5046325;28;19932;-65
2021/09/27 08:26:03;;;;;;;;;;;;;;;;;;5046693;28;19948;-66
2021/09/27 08:28:30;;;;;;;;;;;;;;;;;;5041488;28;20311;-66
2021/09/27 08:30:57;;;;;;;;;;;;;;;;;;5048969;28;19929;-66
2021/09/27 08:33:24;;;;;;;;;;;;;;;;;;5050100;28;19939;-67
2021/09/27 08:35:52;;;;;;;;;;;;;;;;;;5045827;28;20278;-70
2021/09/27 08:38:19;;;;;;;;;;;;;;;;;;5052724;28;19964;-67
2021/09/27 08:40:46;;;;;;;;;;;;;;;;;;5049334;28;19936;-66
2021/09/27 08:43:13;;;;;;;;;;;;;;;;;;5047733;28;19924;-67
2021/09/27 08:45:40;;;;;;;;;;;;;;;;;;5051222;28;19928;-66
2021/09/27 08:48:07;;;;;;;;;;;;;;;;;;5051259;28;19932;-66
2021/09/27 08:50:34;;;;;;;;;;;;;;;;;;5050213;28;20584;-67
2021/09/27 08:53:01;;;;;;;;;;;;;;;;;;5050234;28;20423;-67
2021/09/27 08:55:30;;;;;;;;;;;;;;;;;;5049958;28;20365;-67
2021/09/27 08:57:57;;;;;;;;;;;;;;;;;;5041379;28;19983;-67
2021/09/27 09:00:24;;;;;;;;;;;;;;;;;;5050436;28;19929;-68
2021/09/27 09:02:51;;;;;;;;;;;;;;;;;;5044791;28;20157;-66
2021/09/27 09:05:18;;;;;;;;;;;;;;;;;;5044812;28;19925;-66
2021/09/27 09:07:45;;;;;;;;;;;;;;;;;;5041496;28;19925;-66
2021/09/27 09:10:11;;;;;;;;;;;;;;;;;;5046170;28;19940;-68
2021/09/27 09:12:38;;;;;;;;;;;;;;;;;;5051008;28;19925;-67
2021/09/27 09:15:06;;;;;;;;;;;;;;;;;;5041870;28;19929;-67
2021/09/27 09:17:33;;;;;;;;;;;;;;;;;;5045704;28;19929;-66
2021/09/27 09:20:00;;;;;;;;;;;;;;;;;;5050265;28;19936;-67
2021/09/27 09:22:26;;;;;;;;;;;;;;;;;;5046986;28;19929;-67
2021/09/27 09:24:53;;;;;;;;;;;;;;;;;;5042322;28;19929;-69
2021/09/27 09:27:20;;;;;;;;;;;;;;;;;;5042106;28;19924;-67
2021/09/27 09:29:47;;;;;;;;;;;;;;;;;;5039709;28;19944;-65
2021/09/27 09:32:14;;;;;;;;;;;;;;;;;;5041817;28;20167;-66
2021/09/27 09:34:41;;;;;;;;;;;;;;;;;;5039245;28;19925;-67
2021/09/27 09:37:09;;;;;;;;;;;;;;;;;;5043583;28;19932;-67
2021/09/27 09:39:36;;;;;;;;;;;;;;;;;;5042107;28;20029;-67
2021/09/27 09:44:33;;;;;;;;;;;;;;;;;;5106700;28;20174;-65
2021/09/27 09:47:00;;;;;;;;;;;;;;;;;;5105403;28;19942;-65
2021/09/27 09:49:30;;;;;;;;;;;;;;;;;;5105504;28;19938;-65
2021/09/27 09:51:57;;;;;;;;;;;;;;;;;;5105045;28;19950;-69
2021/09/27 09:54:23;;;;;;;;;;;;;;;;;;5092606;28;19924;-66
2021/09/27 09:56:50;;;;;;;;;;;;;;;;;;5083816;28;19928;-66
2021/09/27 09:59:17;;;;;;;;;;;;;;;;;;5097036;28;19928;-66
2021/09/27 10:01:45;;;;;;;;;;;;;;;;;;5090835;28;19924;-65
2021/09/27 10:04:13;;;;;;;;;;;;;;;;;;5088136;28;19982;-64
2021/09/27 10:06:39;;;;;;;;;;;;;;;;;;5085429;28;19931;-64
2021/09/27 10:09:06;;;;;;;;;;;;;;;;;;5079544;28;22165;-65
2021/09/27 10:11:33;;;;;;;;;;;;;;;;;;5088761;28;19950;-64
2021/09/27 10:14:00;;;;;;;;;;;;;;;;;;5099280;28;19928;-66
2021/09/27 10:16:27;;;;;;;;;;;;;;;;;;5096968;28;19923;-65
2021/09/27 10:18:54;;;;;;;;;;;;;;;;;;5096699;28;19959;-66
2021/09/27 10:21:21;;;;;;;;;;;;;;;;;;5093562;28;19924;-66
2021/09/27 10:23:50;;;;;;;;;;;;;;;;;;5095387;28;20387;-65
2021/09/27 10:26:17;;;;;;;;;;;;;;;;;;5091784;28;20315;-65
2021/09/27 10:28:44;;;;;;;;;;;;;;;;;;5100092;28;19924;-65
2021/09/27 10:31:11;;;;;;;;;;;;;;;;;;5091204;28;19932;-65
2021/09/27 10:33:38;;;;;;;;;;;;;;;;;;5096027;28;19924;-65
2021/09/27 10:36:07;;;;;;;;;;;;;;;;;;5096179;28;20255;-66
2021/09/27 10:38:36;;;;;;;;;;;;;;;;;;5092474;28;19924;-66
2021/09/27 10:41:03;;;;;;;;;;;;;;;;;;5087761;28;19924;-65
2021/09/27 10:43:30;;;;;;;;;;;;;;;;;;5093355;28;19924;-65
2021/09/27 10:45:57;;;;;;;;;;;;;;;;;;5089228;28;19936;-65
2021/09/27 10:48:24;;;;;;;;;;;;;;;;;;5096978;28;19928;-65
2021/09/27 10:50:51;;;;;;;;;;;;;;;;;;5094086;28;19924;-65
2021/09/27 10:53:18;;;;;;;;;;;;;;;;;;5083157;28;20015;-65
2021/09/27 10:55:45;;;;;;;;;;;;;;;;;;5093096;28;19924;-65
2021/09/27 10:58:12;;;;;;;;;;;;;;;;;;5094987;28;20302;-65
2021/09/27 11:00:39;;;;;;;;;;;;;;;;;;5092079;28;19931;-65
2021/09/27 11:03:06;;;;;;;;;;;;;;;;;;5091806;28;20402;-65
2021/09/27 11:05:33;;;;;;;;;;;;;;;;;;5096102;28;19928;-65
2021/09/27 11:08:00;;;;;;;;;;;;;;;;;;5090510;28;19924;-65
2021/09/27 11:10:27;;;;;;;;;;;;;;;;;;5093983;28;19931;-64
2021/09/27 11:12:54;;;;;;;;;;;;;;;;;;5094979;28;20284;-64
2021/09/27 11:15:22;;;;;;;;;;;;;;;;;;5097752;28;19923;-65
2021/09/27 11:17:49;;;;;;;;;;;;;;;;;;5097892;28;19931;-64
2021/09/27 11:20:16;;;;;;;;;;;;;;;;;;5095778;28;19932;-66
2021/09/27 11:22:44;;;;;;;;;;;;;;;;;;5095813;28;19924;-64
2021/09/27 11:25:11;;;;;;;;;;;;;;;;;;5100573;28;19931;-64
2021/09/27 11:27:38;;;;;;;;;;;;;;;;;;5089841;28;19924;-64
2021/09/27 11:30:05;;;;;;;;;;;;;;;;;;5093480;28;20261;-64
2021/09/27 11:32:32;;;;;;;;;;;;;;;;;;5095604;28;19928;-65
2021/09/27 11:34:59;;;;;;;;;;;;;;;;;;5097319;28;20363;-65
2021/09/27 11:37:26;;;;;;;;;;;;;;;;;;5100167;28;19928;-65
2021/09/27 11:39:53;;;;;;;;;;;;;;;;;;5095699;28;19954;-65
2021/09/27 11:42:19;;;;;;;;;;;;;;;;;;5093700;28;19932;-64
2021/09/27 11:44:46;;;;;;;;;;;;;;;;;;5082142;28;20310;-64
2021/09/27 11:47:17;;;;;;;;;;;;;;;;;;5095455;28;20006;-64
2021/09/27 11:49:44;;;;;;;;;;;;;;;;;;5092617;28;19939;-65
2021/09/27 11:52:11;;;;;;;;;;;;;;;;;;5095603;28;19931;-64
2021/09/27 11:54:37;;;;;;;;;;;;;;;;;;5105167;28;20030;-64
2021/09/27 11:57:05;;;;;;;;;;;;;;;;;;5097977;28;20311;-64
2021/09/27 11:59:32;;;;;;;;;;;;;;;;;;5092464;28;19950;-64
2021/09/27 12:01:59;;;;;;;;;;;;;;;;;;5102355;28;20384;-64
2021/09/27 12:04:26;;;;;;;;;;;;;;;;;;5101507;28;19924;-65
2021/09/27 12:06:53;;;;;;;;;;;;;;;;;;5101251;28;19930;-64
2021/09/27 12:09:20;;;;;;;;;;;;;;;;;;5096661;28;20398;-64
2021/09/27 12:11:47;;;;;;;;;;;;;;;;;;5100416;28;19923;-64
2021/09/27 12:14:14;;;;;;;;;;;;;;;;;;5101550;28;19925;-64
2021/09/27 12:16:41;;;;;;;;;;;;;;;;;;5099248;28;19928;-64
2021/09/27 12:19:08;;;;;;;;;;;;;;;;;;5097769;28;19928;-64
2021/09/27 12:21:35;;;;;;;;;;;;;;;;;;5101443;28;20264;-64
2021/09/27 12:24:02;;;;;;;;;;;;;;;;;;5101226;28;19923;-65
2021/09/27 12:26:28;;;;;;;;;;;;;;;;;;5101583;28;19938;-64
2021/09/27 12:28:55;;;;;;;;;;;;;;;;;;5088422;28;20422;-64
2021/09/27 12:31:22;;;;;;;;;;;;;;;;;;5099136;28;19928;-64
2021/09/27 12:33:49;;;;;;;;;;;;;;;;;;5097857;28;20023;-64
2021/09/27 12:36:16;;;;;;;;;;;;;;;;;;5101877;28;19924;-64
2021/09/27 12:38:43;;;;;;;;;;;;;;;;;;5092761;28;19924;-65
2021/09/27 12:41:10;;;;;;;;;;;;;;;;;;5096195;28;19930;-64
2021/09/27 12:43:37;;;;;;;;;;;;;;;;;;5093422;28;20301;-64
2021/09/27 12:46:04;;;;;;;;;;;;;;;;;;5098894;28;19924;-64
2021/09/27 12:48:31;;;;;;;;;;;;;;;;;;5097830;28;19934;-64
2021/09/27 12:50:58;;;;;;;;;;;;;;;;;;5090290;28;20349;-64
2021/09/27 12:53:25;;;;;;;;;;;;;;;;;;5095801;28;20304;-64
2021/09/27 12:55:53;;;;;;;;;;;;;;;;;;5104582;28;19924;-64
2021/09/27 12:58:20;;;;;;;;;;;;;;;;;;5097992;28;19934;-64
2021/09/27 13:00:47;;;;;;;;;;;;;;;;;;5100148;28;20336;-64
2021/09/27 13:03:17;;;;;;;;;;;;;;;;;;5096950;28;19963;-64
2021/09/27 13:05:43;;;;;;;;;;;;;;;;;;5099512;28;19924;-64
2021/09/27 13:08:10;;;;;;;;;;;;;;;;;;5095215;28;19932;-64
2021/09/27 13:10:37;;;;;;;;;;;;;;;;;;5100914;28;19924;-64
2021/09/27 13:13:05;;;;;;;;;;;;;;;;;;5103098;28;19924;-64
2021/09/27 13:15:32;;;;;;;;;;;;;;;;;;5098769;28;20573;-64
2021/09/27 13:17:59;;;;;;;;;;;;;;;;;;5097407;28;19924;-64
2021/09/27 13:20:26;;;;;;;;;;;;;;;;;;5093060;28;19924;-65
2021/09/27 13:22:53;;;;;;;;;;;;;;;;;;5085697;28;19939;-64
2021/09/27 13:25:20;;;;;;;;;;;;;;;;;;5090006;28;20014;-64
2021/09/27 13:27:46;;;;;;;;;;;;;;;;;;5091406;28;19930;-64
2021/09/27 13:30:13;;;;;;;;;;;;;;;;;;5090480;28;19931;-64
2021/09/27 13:32:40;;;;;;;;;;;;;;;;;;5096088;28;20299;-64
2021/09/27 13:35:07;;;;;;;;;;;;;;;;;;5093898;28;19923;-64
2021/09/27 13:37:36;;;;;;;;;;;;;;;;;;5092620;28;20333;-64
2021/09/27 13:40:03;;;;;;;;;;;;;;;;;;5099405;28;20354;-64
2021/09/27 13:42:30;;;;;;;;;;;;;;;;;;5088611;28;19924;-64
2021/09/27 13:44:57;;;;;;;;;;;;;;;;;;5097792;28;19932;-63
2021/09/27 13:47:25;;;;;;;;;;;;;;;;;;5098390;28;20291;-64
2021/09/27 13:49:52;;;;;;;;;;;;;;;;;;5097312;28;20023;-63
2021/09/27 13:52:19;;;;;;;;;;;;;;;;;;5094216;28;19936;-63
2021/09/27 13:54:46;;;;;;;;;;;;;;;;;;5092086;28;19924;-63
2021/09/27 13:57:13;;;;;;;;;;;;;;;;;;5092482;28;19924;-64
2021/09/27 13:59:42;;;;;;;;;;;;;;;;;;5095854;28;20279;-64
2021/09/27 14:02:08;;;;;;;;;;;;;;;;;;5096549;28;19947;-64
2021/09/27 14:04:35;;;;;;;;;;;;;;;;;;5093546;28;20299;-64
2021/09/27 14:07:02;;;;;;;;;;;;;;;;;;5087114;28;20390;-64
2021/09/27 14:09:29;;;;;;;;;;;;;;;;;;5089113;28;19924;-64
2021/09/27 14:11:56;;;;;;;;;;;;;;;;;;5092953;28;19928;-65
2021/09/27 14:14:23;;;;;;;;;;;;;;;;;;5095049;28;19953;-64
2021/09/27 14:16:50;;;;;;;;;;;;;;;;;;5096439;28;19927;-65
2021/09/27 14:19:18;;;;;;;;;;;;;;;;;;5096230;28;20417;-66
2021/09/27 14:21:45;;;;;;;;;;;;;;;;;;5089792;28;19946;-65
2021/09/27 14:24:12;;;;;;;;;;;;;;;;;;5094897;28;19925;-65
2021/09/27 14:26:39;;;;;;;;;;;;;;;;;;5089942;28;19947;-65
2021/09/27 14:29:06;;;;;;;;;;;;;;;;;;5086429;28;19925;-65
2021/09/27 14:31:33;;;;;;;;;;;;;;;;;;5094068;28;19971;-65
2021/09/27 14:34:00;;;;;;;;;;;;;;;;;;5094987;28;19923;-65
2021/09/27 14:36:27;;;;;;;;;;;;;;;;;;5097871;28;19931;-65
2021/09/27 14:38:54;;;;;;;;;;;;;;;;;;5092194;28;19934;-66
2021/09/27 14:41:21;;;;;;;;;;;;;;;;;;5093806;28;19975;-65
2021/09/27 14:43:48;;;;;;;;;;;;;;;;;;5087515;28;19928;-65
2021/09/27 14:46:15;;;;;;;;;;;;;;;;;;5085459;28;20328;-65
2021/09/27 14:48:42;;;;;;;;;;;;;;;;;;5092684;28;19935;-66
2021/09/27 14:51:09;;;;;;;;;;;;;;;;;;5090557;28;19932;-65
2021/09/27 14:53:36;;;;;;;;;;;;;;;;;;5097655;28;20384;-65
2021/09/27 14:56:03;;;;;;;;;;;;;;;;;;5092132;28;19928;-65
2021/09/27 14:58:30;;;;;;;;;;;;;;;;;;5095722;28;19924;-66
2021/09/27 15:00:57;;;;;;;;;;;;;;;;;;5090016;28;19928;-66
2021/09/27 15:03:24;;;;;;;;;;;;;;;;;;5097570;28;19949;-65
2021/09/27 15:05:51;;;;;;;;;;;;;;;;;;5097306;28;20411;-64
2021/09/27 15:08:18;;;;;;;;;;;;;;;;;;5091490;28;19924;-65
2021/09/27 15:10:45;;;;;;;;;;;;;;;;;;5097492;28;20445;-66
2021/09/27 15:13:13;;;;;;;;;;;;;;;;;;5092141;28;20196;-65
2021/09/27 15:15:40;;;;;;;;;;;;;;;;;;5096768;28;20391;-64
2021/09/27 15:18:07;;;;;;;;;;;;;;;;;;5092063;28;19924;-64
2021/09/27 15:20:34;;;;;;;;;;;;;;;;;;5097980;28;19928;-64
2021/09/27 15:23:03;;;;;;;;;;;;;;;;;;5099995;28;19928;-65
2021/09/27 15:25:30;;;;;;;;;;;;;;;;;;5100705;28;19924;-66
2021/09/27 15:27:57;;;;;;;;;;;;;;;;;;5101387;28;19924;-66
2021/09/27 15:30:24;;;;;;;;;;;;;;;;;;5096634;28;20198;-65
2021/09/27 15:32:51;;;;;;;;;;;;;;;;;;5100341;28;20358;-66
2021/09/27 15:35:18;;;;;;;;;;;;;;;;;;5097402;28;19924;-66
2021/09/27 15:37:45;;;;;;;;;;;;;;;;;;5096204;28;19932;-65
2021/09/27 15:40:12;;;;;;;;;;;;;;;;;;5099090;28;19924;-65
2021/09/27 15:42:39;;;;;;;;;;;;;;;;;;5094875;28;19930;-64
2021/09/27 15:45:06;;;;;;;;;;;;;;;;;;5093962;28;20410;-66
2021/09/27 15:47:33;;;;;;;;;;;;;;;;;;5097063;28;19967;-65
2021/09/27 15:50:00;;;;;;;;;;;;;;;;;;5091252;28;20028;-65
2021/09/27 15:52:27;;;;;;;;;;;;;;;;;;5097770;28;19931;-65
2021/09/27 15:54:54;;;;;;;;;;;;;;;;;;5089025;28;20426;-66
2021/09/27 15:57:21;;;;;;;;;;;;;;;;;;5095093;28;19928;-64
2021/09/27 15:59:48;;;;;;;;;;;;;;;;;;5096610;28;19924;-65
2021/09/27 16:02:15;;;;;;;;;;;;;;;;;;5096233;28;20002;-64
2021/09/27 16:04:42;;;;;;;;;;;;;;;;;;5098625;28;20011;-64
2021/09/27 16:07:09;;;;;;;;;;;;;;;;;;5090419;28;19928;-64
2021/09/27 16:09:37;;;;;;;;;;;;;;;;;;5097983;28;20284;-64
2021/09/27 16:12:04;;;;;;;;;;;;;;;;;;5097008;28;19943;-63
2021/09/27 16:14:31;;;;;;;;;;;;;;;;;;5094972;28;19934;-65
2021/09/27 16:16:58;;;;;;;;;;;;;;;;;;5093197;28;19925;-64
2021/09/27 16:19:26;;;;;;;;;;;;;;;;;;5091659;28;20296;-65
2021/09/27 16:21:53;;;;;;;;;;;;;;;;;;5095076;28;20384;-65
2021/09/27 16:24:20;;;;;;;;;;;;;;;;;;5091146;28;19978;-64
2021/09/27 16:26:47;;;;;;;;;;;;;;;;;;5094479;28;19930;-65
2021/09/27 16:29:14;;;;;;;;;;;;;;;;;;5090628;28;19934;-65
2021/09/27 16:31:41;;;;;;;;;;;;;;;;;;5098816;28;20011;-65
2021/09/27 16:34:08;;;;;;;;;;;;;;;;;;5092111;28;19931;-65
2021/09/27 16:36:35;;;;;;;;;;;;;;;;;;5093701;28;19979;-64
2021/09/27 16:39:03;;;;;;;;;;;;;;;;;;5089690;28;19989;-64
2021/09/27 16:41:30;;;;;;;;;;;;;;;;;;5095151;28;19924;-65
2021/09/27 16:43:57;;;;;;;;;;;;;;;;;;5093495;28;19924;-64
2021/09/27 16:46:24;;;;;;;;;;;;;;;;;;5096051;28;20657;-66